Big Bear Station Historical Data
 
Daily Summary for June 25, 2017 Units:  English    Metric   Both
« Previous Day
Next Day »
Daily Weekly Monthly Yearly Custom
  Current: High: Low: Average:
Temperature: 70.2 °F 91.0 °F 54.7 °F 73.4 °F
Dew Point: 39.7 °F 51.3 °F 30.0 °F 39.8 °F
Humidity: 33 % 69 % 12 % 35 %
Wind Speed: 0.0 mph 7.3 mph 0.0 mph 2 mph
Wind Gust: -999.0 mph -999.0 mph - -
Wind:Calm - - WSW
Pressure: 30.31 in 30.33 in 30.27 in -
Precipitation: 0.00 in      
Historical Graphs
 
 
Tabular Data for June 25, 2017
Time Temperature Dew Point Pressure Wind Wind Speed Wind Gust Humidity Rainfall Rate (Hourly)
00:09 66.6 °F 38.8 °F 30.28 in Calm   -999.0 mph 36 % 0 in
00:24 65.8 °F 38.8 °F 30.28 in Calm   -999.0 mph 37 % 0 in
00:40 64.9 °F 38.0 °F 30.28 in Calm   -999.0 mph 37 % 0 in
00:55 64.0 °F 37.9 °F 30.27 in Calm   -999.0 mph 38 % 0 in
01:10 63.1 °F 37.7 °F 30.27 in Calm   -999.0 mph 39 % 0 in
01:25 61.9 °F 37.3 °F 30.27 in Calm   -999.0 mph 40 % 0 in
01:40 61.2 °F 38.5 °F 30.27 in Calm   -999.0 mph 43 % 0 in
01:56 60.6 °F 40.3 °F 30.27 in Calm   -999.0 mph 47 % 0 in
02:11 60.1 °F 43.4 °F 30.27 in Calm   -999.0 mph 54 % 0 in
02:26 59.5 °F 44.3 °F 30.27 in Calm   -999.0 mph 57 % 0 in
02:41 59.0 °F 43.3 °F 30.27 in Calm   -999.0 mph 56 % 0 in
02:56 58.6 °F 43.4 °F 30.27 in Calm   -999.0 mph 57 % 0 in
03:12 58.3 °F 42.7 °F 30.27 in Calm   -999.0 mph 56 % 0 in
03:27 58.1 °F 41.5 °F 30.27 in Calm   -999.0 mph 54 % 0 in
03:42 57.9 °F 39.9 °F 30.27 in Calm   -999.0 mph 51 % 0 in
03:57 57.4 °F 38.4 °F 30.27 in Calm   -999.0 mph 49 % 0 in
04:12 56.8 °F 39.8 °F 30.27 in Calm   -999.0 mph 53 % 0 in
04:28 56.7 °F 38.8 °F 30.27 in Calm   -999.0 mph 51 % 0 in
04:43 56.1 °F 38.7 °F 30.27 in Calm   -999.0 mph 52 % 0 in
04:58 55.9 °F 39.0 °F 30.28 in Calm   -999.0 mph 53 % 0 in
05:13 55.6 °F 38.7 °F 30.28 in Calm   -999.0 mph 53 % 0 in
05:29 55.2 °F 39.8 °F 30.28 in Calm   -999.0 mph 56 % 0 in
05:44 55.0 °F 41.8 °F 30.29 in Calm   -999.0 mph 61 % 0 in
05:59 54.9 °F 40.8 °F 30.29 in Calm   -999.0 mph 59 % 0 in
06:14 54.7 °F 40.7 °F 30.29 in Calm   -999.0 mph 59 % 0 in
06:29 54.9 °F 42.1 °F 30.30 in Calm   -999.0 mph 62 % 0 in
06:45 54.9 °F 43.0 °F 30.30 in Calm   -999.0 mph 64 % 0 in
07:00 55.6 °F 44.0 °F 30.30 in Calm   -999.0 mph 65 % 0 in
07:15 56.5 °F 45.3 °F 30.31 in Calm   -999.0 mph 66 % 0 in
07:30 57.4 °F 45.7 °F 30.31 in Calm   -999.0 mph 65 % 0 in
07:45 58.5 °F 48.4 °F 30.31 in Calm   -999.0 mph 69 % 0 in
08:01 59.7 °F 49.1 °F 30.31 in Calm   -999.0 mph 68 % 0 in
08:16 61.9 °F 50.4 °F 30.31 in Calm   -999.0 mph 66 % 0 in
08:31 63.7 °F 51.3 °F 30.32 in Calm   -999.0 mph 64 % 0 in
08:46 66.6 °F 46.3 °F 30.31 in Calm   -999.0 mph 48 % 0 in
09:01 69.8 °F 40.9 °F 30.32 in West 4.2 mph -999.0 mph 35 % 0 in
09:17 74.5 °F 36.4 °F 30.32 in NW 2.2 mph -999.0 mph 25 % 0 in
09:32 76.6 °F 33.7 °F 30.32 in North 6.3 mph -999.0 mph 21 % 0 in
09:47 78.3 °F 40.6 °F 30.32 in NW 4.7 mph -999.0 mph 26 % 0 in
10:02 78.6 °F 37.7 °F 30.32 in NNW 2.7 mph -999.0 mph 23 % 0 in
10:18 79.2 °F 39.3 °F 30.32 in NW 2.7 mph -999.0 mph 24 % 0 in
10:33 79.7 °F 38.6 °F 30.32 in NNE 4.7 mph -999.0 mph 23 % 0 in
10:48 81.0 °F 37.4 °F 30.32 in West 2.7 mph -999.0 mph 21 % 0 in
11:03 81.7 °F 34.1 °F 30.32 in West 5.8 mph -999.0 mph 18 % 0 in
11:18 82.2 °F 33.1 °F 30.32 in ESE 2.7 mph -999.0 mph 17 % 0 in
11:34 84.0 °F 34.5 °F 30.32 in WNW 3.7 mph -999.0 mph 17 % 0 in
11:49 85.1 °F 38.2 °F 30.33 in NW 2.7 mph -999.0 mph 19 % 0 in
12:04 86.9 °F 35.3 °F 30.33 in SSW 2.7 mph -999.0 mph 16 % 0 in
12:19 87.3 °F 34.0 °F 30.32 in SSE 3.2 mph -999.0 mph 15 % 0 in
12:35 89.1 °F 33.7 °F 30.32 in WNW 2.2 mph -999.0 mph 14 % 0 in
12:50 88.2 °F 31.2 °F 30.32 in NE 4.2 mph -999.0 mph 13 % 0 in
13:05 89.2 °F 30.0 °F 30.33 in NW 4.7 mph -999.0 mph 12 % 0 in
13:20 90.9 °F 33.3 °F 30.33 in NNE 2.2 mph -999.0 mph 13 % 0 in
13:36 90.9 °F 36.9 °F 30.32 in WNW 7.3 mph -999.0 mph 15 % 0 in
13:51 91.0 °F 31.4 °F 30.32 in NW 3.7 mph -999.0 mph 12 % 0 in
14:06 89.8 °F 32.4 °F 30.32 in West 3.7 mph -999.0 mph 13 % 0 in
14:21 91.0 °F 40.2 °F 30.32 in NW 2.2 mph -999.0 mph 17 % 0 in
14:37 90.1 °F 36.2 °F 30.32 in NW 4.7 mph -999.0 mph 15 % 0 in
14:52 90.3 °F 36.4 °F 30.32 in NW 4.7 mph -999.0 mph 15 % 0 in
15:07 89.1 °F 31.9 °F 30.32 in NNW 5.8 mph -999.0 mph 13 % 0 in
15:23 89.6 °F 30.3 °F 30.32 in NNW 3.2 mph -999.0 mph 12 % 0 in
15:38 88.9 °F 35.3 °F 30.32 in NNW 4.2 mph -999.0 mph 15 % 0 in
15:54 90.7 °F 41.4 °F 30.32 in West 7.3 mph -999.0 mph 18 % 0 in
16:09 88.3 °F 40.8 °F 30.31 in South 5.3 mph -999.0 mph 19 % 0 in
16:25 86.9 °F 41.0 °F 30.31 in South 1.7 mph -999.0 mph 20 % 0 in
16:40 87.8 °F 41.8 °F 30.30 in NE 6.8 mph -999.0 mph 20 % 0 in
16:55 87.6 °F 41.6 °F 30.30 in South 4.7 mph -999.0 mph 20 % 0 in
17:10 88.9 °F 45.2 °F 30.30 in NW 5.8 mph -999.0 mph 22 % 0 in
17:26 89.1 °F 45.3 °F 30.30 in NNW 2.7 mph -999.0 mph 22 % 0 in
17:41 88.2 °F 46.9 °F 30.30 in North 4.7 mph -999.0 mph 24 % 0 in
17:56 86.7 °F 44.5 °F 30.30 in West 2.7 mph -999.0 mph 23 % 0 in
18:12 84.9 °F 39.4 °F 30.30 in South 2.2 mph -999.0 mph 20 % 0 in
18:27 85.1 °F 42.0 °F 30.30 in NNW 2.2 mph -999.0 mph 22 % 0 in
18:42 85.6 °F 42.4 °F 30.30 in SSW 3.7 mph -999.0 mph 22 % 0 in
18:57 83.5 °F 42.9 °F 30.30 in SSE 3.2 mph -999.0 mph 24 % 0 in
19:13 82.0 °F 41.7 °F 30.30 in Calm   -999.0 mph 24 % 0 in
19:28 78.1 °F 40.4 °F 30.30 in WNW 2.2 mph -999.0 mph 26 % 0 in
19:44 74.8 °F 40.4 °F 30.31 in North 2.2 mph -999.0 mph 29 % 0 in
19:59 72.9 °F 42.1 °F 30.31 in NNW 2.7 mph -999.0 mph 33 % 0 in
20:14 71.6 °F 41.0 °F 30.31 in Calm   -999.0 mph 33 % 0 in
20:29 70.2 °F 39.7 °F 30.31 in Calm   -999.0 mph 33 % 0 in
Big Bear CA Weather
Compliments of Weather Underground - 1.5 mb